sensor_id;sensor_type;location;lat;lon;timestamp;P1;durP1;ratioP1;P2;durP2;ratioP2
48199;SDS011;33990;44.602;10.976;2023-03-13T00:01:13;7.07;;;1.70;;
48199;SDS011;33990;44.602;10.976;2023-03-13T00:03:47;4.57;;;1.80;;
48199;SDS011;33990;44.602;10.976;2023-03-13T00:06:17;4.05;;;2.10;;
48199;SDS011;33990;44.602;10.976;2023-03-13T00:08:45;4.40;;;1.95;;
48199;SDS011;33990;44.602;10.976;2023-03-13T00:11:13;4.50;;;1.80;;
48199;SDS011;33990;44.602;10.976;2023-03-13T00:13:42;4.30;;;1.88;;
48199;SDS011;33990;44.602;10.976;2023-03-13T00:16:11;3.97;;;1.98;;
48199;SDS011;33990;44.602;10.976;2023-03-13T00:18:44;4.05;;;1.90;;
48199;SDS011;33990;44.602;10.976;2023-03-13T00:21:13;4.43;;;2.00;;
48199;SDS011;33990;44.602;10.976;2023-03-13T00:23:41;3.35;;;2.13;;
48199;SDS011;33990;44.602;10.976;2023-03-13T00:26:10;3.35;;;2.08;;
48199;SDS011;33990;44.602;10.976;2023-03-13T00:28:40;3.70;;;1.60;;
48199;SDS011;33990;44.602;10.976;2023-03-13T00:33:38;4.70;;;1.95;;
48199;SDS011;33990;44.602;10.976;2023-03-13T00:36:28;3.42;;;1.73;;
48199;SDS011;33990;44.602;10.976;2023-03-13T00:39:03;4.68;;;1.75;;
48199;SDS011;33990;44.602;10.976;2023-03-13T00:41:34;4.85;;;1.80;;
48199;SDS011;33990;44.602;10.976;2023-03-13T00:44:04;3.67;;;1.50;;
48199;SDS011;33990;44.602;10.976;2023-03-13T00:46:31;4.25;;;1.60;;
48199;SDS011;33990;44.602;10.976;2023-03-13T00:48:58;3.65;;;1.73;;
48199;SDS011;33990;44.602;10.976;2023-03-13T00:51:26;3.38;;;1.85;;
48199;SDS011;33990;44.602;10.976;2023-03-13T00:53:54;4.15;;;1.67;;
48199;SDS011;33990;44.602;10.976;2023-03-13T00:56:23;3.72;;;1.90;;
48199;SDS011;33990;44.602;10.976;2023-03-13T00:58:50;3.33;;;1.70;;
48199;SDS011;33990;44.602;10.976;2023-03-13T01:01:19;3.70;;;1.60;;
48199;SDS011;33990;44.602;10.976;2023-03-13T01:03:56;4.85;;;2.25;;
48199;SDS011;33990;44.602;10.976;2023-03-13T01:06:30;3.15;;;1.60;;
48199;SDS011;33990;44.602;10.976;2023-03-13T01:08:59;3.28;;;1.67;;
48199;SDS011;33990;44.602;10.976;2023-03-13T01:11:28;4.78;;;1.95;;
48199;SDS011;33990;44.602;10.976;2023-03-13T01:13:58;4.28;;;1.90;;
48199;SDS011;33990;44.602;10.976;2023-03-13T01:16:28;3.50;;;1.90;;
48199;SDS011;33990;44.602;10.976;2023-03-13T01:19:01;4.03;;;1.73;;
48199;SDS011;33990;44.602;10.976;2023-03-13T01:21:31;3.17;;;1.90;;
48199;SDS011;33990;44.602;10.976;2023-03-13T01:23:58;3.50;;;1.95;;
48199;SDS011;33990;44.602;10.976;2023-03-13T01:26:29;3.38;;;1.70;;
48199;SDS011;33990;44.602;10.976;2023-03-13T01:28:56;3.17;;;1.90;;
48199;SDS011;33990;44.602;10.976;2023-03-13T01:31:25;3.50;;;1.80;;
48199;SDS011;33990;44.602;10.976;2023-03-13T01:33:55;4.15;;;1.85;;
48199;SDS011;33990;44.602;10.976;2023-03-13T01:36:25;3.90;;;2.05;;
48199;SDS011;33990;44.602;10.976;2023-03-13T01:38:54;3.15;;;1.92;;
48199;SDS011;33990;44.602;10.976;2023-03-13T01:41:25;3.13;;;1.60;;
48199;SDS011;33990;44.602;10.976;2023-03-13T01:43:53;4.00;;;2.20;;
48199;SDS011;33990;44.602;10.976;2023-03-13T01:46:29;3.25;;;1.58;;
48199;SDS011;33990;44.602;10.976;2023-03-13T01:49:17;3.15;;;1.65;;
48199;SDS011;33990;44.602;10.976;2023-03-13T01:57:37;3.28;;;1.75;;
48199;SDS011;33990;44.602;10.976;2023-03-13T02:00:09;3.35;;;1.73;;
48199;SDS011;33990;44.602;10.976;2023-03-13T02:02:42;5.43;;;1.95;;
48199;SDS011;33990;44.602;10.976;2023-03-13T02:05:15;4.15;;;2.03;;
48199;SDS011;33990;44.602;10.976;2023-03-13T02:07:47;7.55;;;2.10;;
48199;SDS011;33990;44.602;10.976;2023-03-13T02:10:32;4.18;;;1.55;;
48199;SDS011;33990;44.602;10.976;2023-03-13T02:15:32;3.90;;;1.90;;
48199;SDS011;33990;44.602;10.976;2023-03-13T02:18:00;4.88;;;2.20;;
48199;SDS011;33990;44.602;10.976;2023-03-13T02:20:28;4.03;;;2.10;;
48199;SDS011;33990;44.602;10.976;2023-03-13T02:23:06;3.38;;;1.80;;
48199;SDS011;33990;44.602;10.976;2023-03-13T02:25:38;3.33;;;2.15;;
48199;SDS011;33990;44.602;10.976;2023-03-13T02:28:16;3.58;;;1.98;;
48199;SDS011;33990;44.602;10.976;2023-03-13T02:30:46;3.92;;;2.22;;
48199;SDS011;33990;44.602;10.976;2023-03-13T02:33:15;5.00;;;2.20;;
48199;SDS011;33990;44.602;10.976;2023-03-13T02:35:45;3.85;;;2.15;;
48199;SDS011;33990;44.602;10.976;2023-03-13T02:38:17;4.22;;;2.20;;
48199;SDS011;33990;44.602;10.976;2023-03-13T02:40:48;3.03;;;1.65;;
48199;SDS011;33990;44.602;10.976;2023-03-13T02:43:36;3.92;;;2.03;;
48199;SDS011;33990;44.602;10.976;2023-03-13T02:46:13;4.97;;;2.10;;
48199;SDS011;33990;44.602;10.976;2023-03-13T02:51:35;4.88;;;2.15;;
48199;SDS011;33990;44.602;10.976;2023-03-13T02:54:27;4.78;;;2.22;;
48199;SDS011;33990;44.602;10.976;2023-03-13T02:57:01;4.90;;;2.30;;
48199;SDS011;33990;44.602;10.976;2023-03-13T02:59:30;3.42;;;2.05;;
48199;SDS011;33990;44.602;10.976;2023-03-13T03:01:58;4.90;;;2.15;;
48199;SDS011;33990;44.602;10.976;2023-03-13T03:04:26;4.65;;;2.03;;
48199;SDS011;33990;44.602;10.976;2023-03-13T03:06:55;3.38;;;2.05;;
48199;SDS011;33990;44.602;10.976;2023-03-13T03:09:23;5.00;;;2.10;;
48199;SDS011;33990;44.602;10.976;2023-03-13T03:11:54;4.35;;;2.13;;
48199;SDS011;33990;44.602;10.976;2023-03-13T03:14:24;4.15;;;2.03;;
48199;SDS011;33990;44.602;10.976;2023-03-13T03:16:51;5.85;;;2.40;;
48199;SDS011;33990;44.602;10.976;2023-03-13T03:19:18;3.50;;;2.10;;
48199;SDS011;33990;44.602;10.976;2023-03-13T03:21:46;4.45;;;2.67;;
48199;SDS011;33990;44.602;10.976;2023-03-13T03:24:18;3.65;;;1.90;;
48199;SDS011;33990;44.602;10.976;2023-03-13T03:26:45;4.25;;;2.20;;
48199;SDS011;33990;44.602;10.976;2023-03-13T03:29:20;4.78;;;2.08;;
48199;SDS011;33990;44.602;10.976;2023-03-13T03:31:51;4.60;;;1.92;;
48199;SDS011;33990;44.602;10.976;2023-03-13T03:34:18;4.82;;;2.13;;
48199;SDS011;33990;44.602;10.976;2023-03-13T03:36:46;4.60;;;1.92;;
48199;SDS011;33990;44.602;10.976;2023-03-13T03:39:13;3.58;;;2.10;;
48199;SDS011;33990;44.602;10.976;2023-03-13T03:41:41;5.43;;;2.40;;
48199;SDS011;33990;44.602;10.976;2023-03-13T03:44:10;2.90;;;1.98;;
48199;SDS011;33990;44.602;10.976;2023-03-13T03:46:51;3.65;;;1.98;;
48199;SDS011;33990;44.602;10.976;2023-03-13T03:49:20;3.65;;;2.15;;
48199;SDS011;33990;44.602;10.976;2023-03-13T03:51:48;3.55;;;2.22;;
48199;SDS011;33990;44.602;10.976;2023-03-13T03:54:20;3.00;;;1.73;;
48199;SDS011;33990;44.602;10.976;2023-03-13T03:56:47;4.55;;;2.30;;
48199;SDS011;33990;44.602;10.976;2023-03-13T03:59:15;5.03;;;2.20;;
48199;SDS011;33990;44.602;10.976;2023-03-13T04:01:46;4.80;;;2.20;;
48199;SDS011;33990;44.602;10.976;2023-03-13T04:04:17;3.33;;;1.83;;
48199;SDS011;33990;44.602;10.976;2023-03-13T04:06:49;3.83;;;2.45;;
48199;SDS011;33990;44.602;10.976;2023-03-13T04:09:16;3.50;;;1.90;;
48199;SDS011;33990;44.602;10.976;2023-03-13T04:11:59;3.55;;;2.17;;
48199;SDS011;33990;44.602;10.976;2023-03-13T04:14:29;4.30;;;2.10;;
48199;SDS011;33990;44.602;10.976;2023-03-13T04:16:58;3.03;;;2.17;;
48199;SDS011;33990;44.602;10.976;2023-03-13T04:19:25;3.25;;;1.98;;
48199;SDS011;33990;44.602;10.976;2023-03-13T04:21:52;3.75;;;2.10;;
48199;SDS011;33990;44.602;10.976;2023-03-13T04:24:21;2.88;;;1.80;;
48199;SDS011;33990;44.602;10.976;2023-03-13T04:26:48;3.92;;;2.22;;
48199;SDS011;33990;44.602;10.976;2023-03-13T04:29:15;4.47;;;2.25;;
48199;SDS011;33990;44.602;10.976;2023-03-13T04:32:03;3.22;;;1.98;;
48199;SDS011;33990;44.602;10.976;2023-03-13T04:34:57;6.63;;;2.40;;
48199;SDS011;33990;44.602;10.976;2023-03-13T04:37:43;3.47;;;1.90;;
48199;SDS011;33990;44.602;10.976;2023-03-13T04:40:29;4.03;;;2.20;;
48199;SDS011;33990;44.602;10.976;2023-03-13T04:43:35;3.70;;;2.08;;
48199;SDS011;33990;44.602;10.976;2023-03-13T04:46:25;3.28;;;2.25;;
48199;SDS011;33990;44.602;10.976;2023-03-13T04:49:21;3.95;;;2.22;;
48199;SDS011;33990;44.602;10.976;2023-03-13T04:52:14;2.80;;;1.80;;
48199;SDS011;33990;44.602;10.976;2023-03-13T04:55:08;3.95;;;2.20;;
48199;SDS011;33990;44.602;10.976;2023-03-13T04:57:52;4.70;;;2.50;;
48199;SDS011;33990;44.602;10.976;2023-03-13T05:00:55;3.80;;;2.10;;
48199;SDS011;33990;44.602;10.976;2023-03-13T05:03:31;3.67;;;1.90;;
48199;SDS011;33990;44.602;10.976;2023-03-13T05:06:17;2.97;;;1.80;;
48199;SDS011;33990;44.602;10.976;2023-03-13T05:09:08;3.92;;;1.77;;
48199;SDS011;33990;44.602;10.976;2023-03-13T05:11:38;3.40;;;2.03;;
48199;SDS011;33990;44.602;10.976;2023-03-13T05:14:36;4.07;;;2.22;;
48199;SDS011;33990;44.602;10.976;2023-03-13T05:17:22;4.53;;;2.20;;
48199;SDS011;33990;44.602;10.976;2023-03-13T05:19:56;4.68;;;2.17;;
48199;SDS011;33990;44.602;10.976;2023-03-13T05:22:36;3.70;;;2.28;;
48199;SDS011;33990;44.602;10.976;2023-03-13T05:25:14;4.25;;;2.53;;
48199;SDS011;33990;44.602;10.976;2023-03-13T05:28:08;4.68;;;2.00;;
48199;SDS011;33990;44.602;10.976;2023-03-13T05:31:01;4.63;;;1.90;;
48199;SDS011;33990;44.602;10.976;2023-03-13T05:33:50;4.45;;;2.20;;
48199;SDS011;33990;44.602;10.976;2023-03-13T05:36:27;3.88;;;2.05;;
48199;SDS011;33990;44.602;10.976;2023-03-13T05:39:17;4.85;;;2.15;;
48199;SDS011;33990;44.602;10.976;2023-03-13T05:41:47;3.47;;;2.03;;
48199;SDS011;33990;44.602;10.976;2023-03-13T05:44:33;4.18;;;2.00;;
48199;SDS011;33990;44.602;10.976;2023-03-13T05:47:32;4.60;;;2.20;;
48199;SDS011;33990;44.602;10.976;2023-03-13T05:50:17;3.92;;;1.58;;
48199;SDS011;33990;44.602;10.976;2023-03-13T05:52:53;3.15;;;2.05;;
48199;SDS011;33990;44.602;10.976;2023-03-13T05:55:38;4.63;;;2.38;;
48199;SDS011;33990;44.602;10.976;2023-03-13T05:58:24;4.20;;;1.90;;
48199;SDS011;33990;44.602;10.976;2023-03-13T06:01:13;4.13;;;2.08;;
48199;SDS011;33990;44.602;10.976;2023-03-13T06:03:50;6.00;;;2.05;;
48199;SDS011;33990;44.602;10.976;2023-03-13T06:06:18;4.10;;;2.15;;
48199;SDS011;33990;44.602;10.976;2023-03-13T06:11:21;3.88;;;2.40;;
48199;SDS011;33990;44.602;10.976;2023-03-13T06:13:55;4.95;;;2.33;;
48199;SDS011;33990;44.602;10.976;2023-03-13T06:19:16;4.65;;;2.42;;
48199;SDS011;33990;44.602;10.976;2023-03-13T06:21:44;5.68;;;2.70;;
48199;SDS011;33990;44.602;10.976;2023-03-13T06:24:11;3.55;;;2.40;;
48199;SDS011;33990;44.602;10.976;2023-03-13T06:26:39;3.95;;;2.05;;
48199;SDS011;33990;44.602;10.976;2023-03-13T06:29:06;4.95;;;1.95;;
48199;SDS011;33990;44.602;10.976;2023-03-13T06:31:33;3.55;;;2.13;;
48199;SDS011;33990;44.602;10.976;2023-03-13T06:34:01;4.78;;;2.05;;
48199;SDS011;33990;44.602;10.976;2023-03-13T06:36:28;4.88;;;1.92;;
48199;SDS011;33990;44.602;10.976;2023-03-13T06:38:55;2.90;;;1.80;;
48199;SDS011;33990;44.602;10.976;2023-03-13T06:41:23;4.18;;;2.20;;
48199;SDS011;33990;44.602;10.976;2023-03-13T06:43:50;4.07;;;2.20;;
48199;SDS011;33990;44.602;10.976;2023-03-13T06:46:18;3.95;;;2.17;;
48199;SDS011;33990;44.602;10.976;2023-03-13T06:48:48;3.78;;;2.13;;
48199;SDS011;33990;44.602;10.976;2023-03-13T06:51:18;5.85;;;2.50;;
48199;SDS011;33990;44.602;10.976;2023-03-13T06:53:46;3.88;;;2.10;;
48199;SDS011;33990;44.602;10.976;2023-03-13T06:56:14;3.83;;;2.10;;
48199;SDS011;33990;44.602;10.976;2023-03-13T06:58:45;3.65;;;2.20;;
48199;SDS011;33990;44.602;10.976;2023-03-13T07:01:14;4.70;;;2.50;;
48199;SDS011;33990;44.602;10.976;2023-03-13T07:03:43;4.78;;;2.47;;
48199;SDS011;33990;44.602;10.976;2023-03-13T07:06:11;3.92;;;1.88;;
48199;SDS011;33990;44.602;10.976;2023-03-13T07:08:58;3.60;;;2.03;;
48199;SDS011;33990;44.602;10.976;2023-03-13T07:11:25;5.15;;;2.25;;
48199;SDS011;33990;44.602;10.976;2023-03-13T07:13:53;5.28;;;2.00;;
48199;SDS011;33990;44.602;10.976;2023-03-13T07:16:41;4.40;;;2.25;;
48199;SDS011;33990;44.602;10.976;2023-03-13T07:19:08;4.32;;;2.08;;
48199;SDS011;33990;44.602;10.976;2023-03-13T07:21:35;4.05;;;2.00;;
48199;SDS011;33990;44.602;10.976;2023-03-13T07:24:03;4.93;;;1.98;;
48199;SDS011;33990;44.602;10.976;2023-03-13T07:26:30;4.57;;;2.20;;
48199;SDS011;33990;44.602;10.976;2023-03-13T07:28:58;4.45;;;2.25;;
48199;SDS011;33990;44.602;10.976;2023-03-13T07:31:25;3.10;;;2.03;;
48199;SDS011;33990;44.602;10.976;2023-03-13T07:33:53;4.38;;;2.80;;
48199;SDS011;33990;44.602;10.976;2023-03-13T07:36:23;4.15;;;2.00;;
48199;SDS011;33990;44.602;10.976;2023-03-13T07:38:51;7.88;;;2.20;;
48199;SDS011;33990;44.602;10.976;2023-03-13T07:41:19;4.65;;;2.08;;
48199;SDS011;33990;44.602;10.976;2023-03-13T07:43:46;3.47;;;1.88;;
48199;SDS011;33990;44.602;10.976;2023-03-13T07:46:15;5.47;;;2.28;;
48199;SDS011;33990;44.602;10.976;2023-03-13T07:48:47;3.40;;;1.95;;
48199;SDS011;33990;44.602;10.976;2023-03-13T07:51:22;4.53;;;2.10;;
48199;SDS011;33990;44.602;10.976;2023-03-13T07:54:08;5.03;;;2.55;;
48199;SDS011;33990;44.602;10.976;2023-03-13T07:56:36;5.20;;;2.75;;
48199;SDS011;33990;44.602;10.976;2023-03-13T07:59:03;5.85;;;2.20;;
48199;SDS011;33990;44.602;10.976;2023-03-13T08:01:31;4.15;;;2.25;;
48199;SDS011;33990;44.602;10.976;2023-03-13T08:03:58;5.18;;;2.30;;
48199;SDS011;33990;44.602;10.976;2023-03-13T08:06:30;6.13;;;1.85;;
48199;SDS011;33990;44.602;10.976;2023-03-13T08:09:00;4.57;;;2.40;;
48199;SDS011;33990;44.602;10.976;2023-03-13T08:11:28;4.35;;;2.83;;
48199;SDS011;33990;44.602;10.976;2023-03-13T08:13:57;8.27;;;3.03;;
48199;SDS011;33990;44.602;10.976;2023-03-13T08:16:28;6.53;;;2.63;;
48199;SDS011;33990;44.602;10.976;2023-03-13T08:18:58;6.78;;;2.80;;
48199;SDS011;33990;44.602;10.976;2023-03-13T08:21:27;6.82;;;3.05;;
48199;SDS011;33990;44.602;10.976;2023-03-13T08:23:57;9.30;;;3.65;;
48199;SDS011;33990;44.602;10.976;2023-03-13T08:26:26;10.20;;;4.13;;
48199;SDS011;33990;44.602;10.976;2023-03-13T08:29:02;5.82;;;3.97;;
48199;SDS011;33990;44.602;10.976;2023-03-13T08:31:36;6.10;;;4.28;;
48199;SDS011;33990;44.602;10.976;2023-03-13T08:34:08;8.57;;;4.85;;
48199;SDS011;33990;44.602;10.976;2023-03-13T08:36:37;7.30;;;4.40;;
48199;SDS011;33990;44.602;10.976;2023-03-13T08:39:06;8.93;;;4.60;;
48199;SDS011;33990;44.602;10.976;2023-03-13T08:41:37;7.60;;;5.18;;
48199;SDS011;33990;44.602;10.976;2023-03-13T08:44:07;7.78;;;5.10;;
48199;SDS011;33990;44.602;10.976;2023-03-13T08:46:37;8.52;;;4.32;;
48199;SDS011;33990;44.602;10.976;2023-03-13T08:49:05;8.57;;;4.22;;
48199;SDS011;33990;44.602;10.976;2023-03-13T08:51:34;6.40;;;4.07;;
48199;SDS011;33990;44.602;10.976;2023-03-13T08:54:02;7.97;;;3.45;;
48199;SDS011;33990;44.602;10.976;2023-03-13T08:56:30;6.78;;;4.20;;
48199;SDS011;33990;44.602;10.976;2023-03-13T08:58:59;5.63;;;3.63;;
48199;SDS011;33990;44.602;10.976;2023-03-13T09:01:28;6.45;;;3.80;;
48199;SDS011;33990;44.602;10.976;2023-03-13T09:03:57;6.38;;;3.00;;
48199;SDS011;33990;44.602;10.976;2023-03-13T09:06:30;8.65;;;4.03;;
48199;SDS011;33990;44.602;10.976;2023-03-13T09:09:01;8.80;;;3.85;;
48199;SDS011;33990;44.602;10.976;2023-03-13T09:11:31;4.60;;;3.35;;
48199;SDS011;33990;44.602;10.976;2023-03-13T09:13:59;5.72;;;3.35;;
48199;SDS011;33990;44.602;10.976;2023-03-13T09:16:27;4.35;;;2.45;;
48199;SDS011;33990;44.602;10.976;2023-03-13T09:18:56;8.82;;;3.45;;
48199;SDS011;33990;44.602;10.976;2023-03-13T09:21:25;5.93;;;3.33;;
48199;SDS011;33990;44.602;10.976;2023-03-13T09:23:52;5.75;;;3.22;;
48199;SDS011;33990;44.602;10.976;2023-03-13T09:26:20;5.38;;;3.45;;
48199;SDS011;33990;44.602;10.976;2023-03-13T09:28:50;5.60;;;3.25;;
48199;SDS011;33990;44.602;10.976;2023-03-13T09:31:22;7.75;;;3.47;;
48199;SDS011;33990;44.602;10.976;2023-03-13T09:33:52;11.02;;;3.03;;
48199;SDS011;33990;44.602;10.976;2023-03-13T09:36:20;4.57;;;2.92;;
48199;SDS011;33990;44.602;10.976;2023-03-13T09:38:50;5.85;;;3.25;;
48199;SDS011;33990;44.602;10.976;2023-03-13T09:41:21;5.65;;;3.75;;
48199;SDS011;33990;44.602;10.976;2023-03-13T09:47:24;6.70;;;3.72;;
48199;SDS011;33990;44.602;10.976;2023-03-13T09:49:56;5.55;;;3.05;;
48199;SDS011;33990;44.602;10.976;2023-03-13T09:52:32;5.90;;;3.28;;
48199;SDS011;33990;44.602;10.976;2023-03-13T09:55:22;5.78;;;3.50;;
48199;SDS011;33990;44.602;10.976;2023-03-13T10:00:38;6.50;;;3.90;;
48199;SDS011;33990;44.602;10.976;2023-03-13T10:03:11;6.13;;;3.30;;
48199;SDS011;33990;44.602;10.976;2023-03-13T10:05:54;4.88;;;3.03;;
48199;SDS011;33990;44.602;10.976;2023-03-13T10:08:25;6.28;;;3.50;;
48199;SDS011;33990;44.602;10.976;2023-03-13T10:13:32;7.45;;;3.42;;
48199;SDS011;33990;44.602;10.976;2023-03-13T10:16:08;6.65;;;3.40;;
48199;SDS011;33990;44.602;10.976;2023-03-13T10:18:46;5.88;;;3.60;;
48199;SDS011;33990;44.602;10.976;2023-03-13T10:21:20;5.40;;;3.30;;
48199;SDS011;33990;44.602;10.976;2023-03-13T10:23:56;9.32;;;3.33;;
48199;SDS011;33990;44.602;10.976;2023-03-13T10:26:40;4.60;;;3.00;;
48199;SDS011;33990;44.602;10.976;2023-03-13T10:29:26;5.45;;;3.67;;
48199;SDS011;33990;44.602;10.976;2023-03-13T10:31:57;7.95;;;4.05;;
48199;SDS011;33990;44.602;10.976;2023-03-13T10:34:27;5.85;;;3.45;;
48199;SDS011;33990;44.602;10.976;2023-03-13T10:37:16;6.53;;;3.72;;
48199;SDS011;33990;44.602;10.976;2023-03-13T10:39:47;4.15;;;2.75;;
48199;SDS011;33990;44.602;10.976;2023-03-13T10:45:00;6.55;;;3.35;;
48199;SDS011;33990;44.602;10.976;2023-03-13T10:47:33;4.53;;;2.95;;
48199;SDS011;33990;44.602;10.976;2023-03-13T10:50:01;5.40;;;3.10;;
48199;SDS011;33990;44.602;10.976;2023-03-13T10:52:32;8.38;;;3.75;;
48199;SDS011;33990;44.602;10.976;2023-03-13T10:55:10;6.93;;;3.63;;
48199;SDS011;33990;44.602;10.976;2023-03-13T10:57:40;4.30;;;2.70;;
48199;SDS011;33990;44.602;10.976;2023-03-13T11:00:29;6.47;;;3.33;;
48199;SDS011;33990;44.602;10.976;2023-03-13T11:03:04;4.60;;;3.08;;
48199;SDS011;33990;44.602;10.976;2023-03-13T11:05:40;7.90;;;3.58;;
48199;SDS011;33990;44.602;10.976;2023-03-13T11:10:56;5.03;;;3.03;;
48199;SDS011;33990;44.602;10.976;2023-03-13T11:13:35;5.20;;;3.10;;
48199;SDS011;33990;44.602;10.976;2023-03-13T11:16:23;5.25;;;3.15;;
48199;SDS011;33990;44.602;10.976;2023-03-13T11:33:03;6.13;;;2.85;;
48199;SDS011;33990;44.602;10.976;2023-03-13T11:35:41;6.65;;;3.60;;
48199;SDS011;33990;44.602;10.976;2023-03-13T11:41:08;6.88;;;3.88;;
48199;SDS011;33990;44.602;10.976;2023-03-13T11:47:10;3.50;;;2.35;;
48199;SDS011;33990;44.602;10.976;2023-03-13T11:58:40;6.60;;;2.85;;
48199;SDS011;33990;44.602;10.976;2023-03-13T12:01:15;6.55;;;3.03;;
48199;SDS011;33990;44.602;10.976;2023-03-13T12:09:05;6.75;;;2.47;;
48199;SDS011;33990;44.602;10.976;2023-03-13T12:11:53;7.28;;;2.53;;
48199;SDS011;33990;44.602;10.976;2023-03-13T12:14:36;6.50;;;2.30;;
48199;SDS011;33990;44.602;10.976;2023-03-13T12:19:40;7.35;;;4.10;;
48199;SDS011;33990;44.602;10.976;2023-03-13T12:22:16;8.45;;;4.35;;
48199;SDS011;33990;44.602;10.976;2023-03-13T12:24:54;6.72;;;2.83;;
48199;SDS011;33990;44.602;10.976;2023-03-13T12:27:36;6.15;;;2.92;;
48199;SDS011;33990;44.602;10.976;2023-03-13T12:36:16;5.95;;;2.22;;
48199;SDS011;33990;44.602;10.976;2023-03-13T12:38:50;6.43;;;2.47;;
48199;SDS011;33990;44.602;10.976;2023-03-13T12:41:27;4.88;;;2.35;;
48199;SDS011;33990;44.602;10.976;2023-03-13T12:44:00;4.50;;;1.98;;
48199;SDS011;33990;44.602;10.976;2023-03-13T12:46:53;4.53;;;2.00;;
48199;SDS011;33990;44.602;10.976;2023-03-13T12:58:09;7.47;;;2.50;;
48199;SDS011;33990;44.602;10.976;2023-03-13T13:00:43;6.20;;;2.60;;
48199;SDS011;33990;44.602;10.976;2023-03-13T13:14:04;7.32;;;2.35;;
48199;SDS011;33990;44.602;10.976;2023-03-13T13:32:46;4.85;;;2.17;;
48199;SDS011;33990;44.602;10.976;2023-03-13T13:35:35;4.10;;;1.90;;
48199;SDS011;33990;44.602;10.976;2023-03-13T13:43:25;6.68;;;2.47;;
48199;SDS011;33990;44.602;10.976;2023-03-13T13:46:04;4.95;;;2.08;;
48199;SDS011;33990;44.602;10.976;2023-03-13T13:48:39;3.78;;;2.05;;
48199;SDS011;33990;44.602;10.976;2023-03-13T13:53:44;3.72;;;1.98;;
48199;SDS011;33990;44.602;10.976;2023-03-13T13:58:56;3.47;;;1.67;;
48199;SDS011;33990;44.602;10.976;2023-03-13T14:01:26;3.70;;;1.67;;
48199;SDS011;33990;44.602;10.976;2023-03-13T14:03:56;3.72;;;1.80;;
48199;SDS011;33990;44.602;10.976;2023-03-13T14:06:33;5.22;;;2.35;;
48199;SDS011;33990;44.602;10.976;2023-03-13T14:12:23;4.28;;;1.52;;
48199;SDS011;33990;44.602;10.976;2023-03-13T14:17:44;3.72;;;1.60;;
48199;SDS011;33990;44.602;10.976;2023-03-13T14:23:01;4.35;;;2.08;;
48199;SDS011;33990;44.602;10.976;2023-03-13T14:25:41;6.85;;;1.80;;
48199;SDS011;33990;44.602;10.976;2023-03-13T14:28:20;3.42;;;1.45;;
48199;SDS011;33990;44.602;10.976;2023-03-13T14:30:50;3.45;;;1.80;;
48199;SDS011;33990;44.602;10.976;2023-03-13T14:33:20;5.43;;;2.20;;
48199;SDS011;33990;44.602;10.976;2023-03-13T14:35:49;2.47;;;1.58;;
48199;SDS011;33990;44.602;10.976;2023-03-13T14:38:26;3.78;;;1.77;;
48199;SDS011;33990;44.602;10.976;2023-03-13T14:40:58;3.65;;;1.83;;
48199;SDS011;33990;44.602;10.976;2023-03-13T14:43:34;3.85;;;1.98;;
48199;SDS011;33990;44.602;10.976;2023-03-13T14:46:13;4.50;;;2.00;;
48199;SDS011;33990;44.602;10.976;2023-03-13T14:48:49;3.47;;;1.73;;
48199;SDS011;33990;44.602;10.976;2023-03-13T14:51:23;5.05;;;1.80;;
48199;SDS011;33990;44.602;10.976;2023-03-13T14:53:53;3.60;;;1.92;;
48199;SDS011;33990;44.602;10.976;2023-03-13T14:56:38;4.05;;;1.88;;
48199;SDS011;33990;44.602;10.976;2023-03-13T14:59:18;3.60;;;1.70;;
48199;SDS011;33990;44.602;10.976;2023-03-13T15:04:50;4.50;;;1.90;;
48199;SDS011;33990;44.602;10.976;2023-03-13T15:07:22;3.83;;;1.83;;
48199;SDS011;33990;44.602;10.976;2023-03-13T15:09:50;3.28;;;1.73;;
48199;SDS011;33990;44.602;10.976;2023-03-13T15:12:20;3.95;;;1.80;;
48199;SDS011;33990;44.602;10.976;2023-03-13T15:14:50;3.80;;;1.75;;
48199;SDS011;33990;44.602;10.976;2023-03-13T15:17:19;2.47;;;1.40;;
48199;SDS011;33990;44.602;10.976;2023-03-13T15:19:50;3.47;;;1.77;;
48199;SDS011;33990;44.602;10.976;2023-03-13T15:22:26;3.80;;;1.95;;
48199;SDS011;33990;44.602;10.976;2023-03-13T15:24:55;3.28;;;1.50;;
48199;SDS011;33990;44.602;10.976;2023-03-13T15:27:34;3.85;;;2.13;;
48199;SDS011;33990;44.602;10.976;2023-03-13T15:30:02;3.80;;;1.80;;
48199;SDS011;33990;44.602;10.976;2023-03-13T15:32:32;3.67;;;1.50;;
48199;SDS011;33990;44.602;10.976;2023-03-13T15:35:04;3.70;;;1.40;;
48199;SDS011;33990;44.602;10.976;2023-03-13T15:37:47;4.50;;;1.50;;
48199;SDS011;33990;44.602;10.976;2023-03-13T15:40:15;2.92;;;1.80;;
48199;SDS011;33990;44.602;10.976;2023-03-13T15:42:43;3.75;;;1.85;;
48199;SDS011;33990;44.602;10.976;2023-03-13T15:45:10;3.20;;;1.85;;
48199;SDS011;33990;44.602;10.976;2023-03-13T15:47:37;4.30;;;1.65;;
48199;SDS011;33990;44.602;10.976;2023-03-13T15:50:05;3.53;;;1.90;;
48199;SDS011;33990;44.602;10.976;2023-03-13T15:52:38;3.90;;;1.60;;
48199;SDS011;33990;44.602;10.976;2023-03-13T15:55:06;3.70;;;1.60;;
48199;SDS011;33990;44.602;10.976;2023-03-13T15:57:34;3.63;;;1.70;;
48199;SDS011;33990;44.602;10.976;2023-03-13T16:00:26;3.47;;;1.80;;
48199;SDS011;33990;44.602;10.976;2023-03-13T16:02:53;4.50;;;1.98;;
48199;SDS011;33990;44.602;10.976;2023-03-13T16:05:20;3.35;;;1.83;;
48199;SDS011;33990;44.602;10.976;2023-03-13T16:07:48;3.70;;;2.20;;
48199;SDS011;33990;44.602;10.976;2023-03-13T16:10:20;3.03;;;1.45;;
48199;SDS011;33990;44.602;10.976;2023-03-13T16:12:54;4.43;;;1.75;;
48199;SDS011;33990;44.602;10.976;2023-03-13T16:15:21;3.45;;;1.83;;
48199;SDS011;33990;44.602;10.976;2023-03-13T16:17:49;3.53;;;1.73;;
48199;SDS011;33990;44.602;10.976;2023-03-13T16:20:17;2.83;;;1.55;;
48199;SDS011;33990;44.602;10.976;2023-03-13T16:22:47;3.05;;;1.88;;
48199;SDS011;33990;44.602;10.976;2023-03-13T16:25:19;3.75;;;1.80;;
48199;SDS011;33990;44.602;10.976;2023-03-13T16:27:47;3.33;;;1.55;;
48199;SDS011;33990;44.602;10.976;2023-03-13T16:30:16;3.67;;;1.80;;
48199;SDS011;33990;44.602;10.976;2023-03-13T16:32:45;6.20;;;1.88;;
48199;SDS011;33990;44.602;10.976;2023-03-13T16:35:12;3.13;;;1.48;;
48199;SDS011;33990;44.602;10.976;2023-03-13T16:37:39;2.70;;;1.30;;
48199;SDS011;33990;44.602;10.976;2023-03-13T16:40:12;2.75;;;1.65;;
48199;SDS011;33990;44.602;10.976;2023-03-13T16:42:48;4.75;;;1.92;;
48199;SDS011;33990;44.602;10.976;2023-03-13T16:45:16;2.85;;;1.63;;
48199;SDS011;33990;44.602;10.976;2023-03-13T16:47:44;4.72;;;2.08;;
48199;SDS011;33990;44.602;10.976;2023-03-13T16:52:53;3.25;;;1.90;;
48199;SDS011;33990;44.602;10.976;2023-03-13T16:55:21;3.72;;;1.88;;
48199;SDS011;33990;44.602;10.976;2023-03-13T17:00:22;3.30;;;1.95;;
48199;SDS011;33990;44.602;10.976;2023-03-13T17:02:51;3.63;;;2.00;;
48199;SDS011;33990;44.602;10.976;2023-03-13T17:05:19;2.95;;;1.92;;
48199;SDS011;33990;44.602;10.976;2023-03-13T17:07:48;4.35;;;1.65;;
48199;SDS011;33990;44.602;10.976;2023-03-13T17:10:21;4.65;;;1.85;;
48199;SDS011;33990;44.602;10.976;2023-03-13T17:12:50;3.58;;;1.40;;
48199;SDS011;33990;44.602;10.976;2023-03-13T17:15:18;2.80;;;1.80;;
48199;SDS011;33990;44.602;10.976;2023-03-13T17:17:46;5.22;;;2.20;;
48199;SDS011;33990;44.602;10.976;2023-03-13T17:20:19;3.72;;;2.03;;
48199;SDS011;33990;44.602;10.976;2023-03-13T17:22:48;3.33;;;2.20;;
48199;SDS011;33990;44.602;10.976;2023-03-13T17:25:16;4.13;;;2.28;;
48199;SDS011;33990;44.602;10.976;2023-03-13T17:27:43;4.38;;;2.50;;